sensor_id;sensor_type;location;lat;lon;timestamp;temperature;humidity
9414;DHT22;4746;35.664;139.738;2023-07-09T00:02:23;30.70;99.90
9414;DHT22;4746;35.664;139.738;2023-07-09T00:04:53;30.80;99.90
9414;DHT22;4746;35.664;139.738;2023-07-09T00:07:33;30.90;99.90
9414;DHT22;4746;35.664;139.738;2023-07-09T00:10:01;30.90;99.90
9414;DHT22;4746;35.664;139.738;2023-07-09T00:12:29;30.90;99.90
9414;DHT22;4746;35.664;139.738;2023-07-09T00:14:57;30.90;99.90
9414;DHT22;4746;35.664;139.738;2023-07-09T00:17:31;30.90;99.90
9414;DHT22;4746;35.664;139.738;2023-07-09T00:20:00;30.90;99.90
9414;DHT22;4746;35.664;139.738;2023-07-09T00:22:32;30.90;99.90
9414;DHT22;4746;35.664;139.738;2023-07-09T00:25:00;31.10;99.90
9414;DHT22;4746;35.664;139.738;2023-07-09T00:27:29;31.10;99.90
9414;DHT22;4746;35.664;139.738;2023-07-09T00:29:57;31.30;99.90
9414;DHT22;4746;35.664;139.738;2023-07-09T00:32:25;31.50;99.90
9414;DHT22;4746;35.664;139.738;2023-07-09T00:34:54;31.50;99.90
9414;DHT22;4746;35.664;139.738;2023-07-09T00:37:24;31.60;99.90
9414;DHT22;4746;35.664;139.738;2023-07-09T00:39:52;31.60;99.90
9414;DHT22;4746;35.664;139.738;2023-07-09T00:42:21;31.60;99.90
9414;DHT22;4746;35.664;139.738;2023-07-09T00:44:54;31.60;99.90
9414;DHT22;4746;35.664;139.738;2023-07-09T00:47:37;31.70;99.90
9414;DHT22;4746;35.664;139.738;2023-07-09T00:50:34;31.60;99.90
9414;DHT22;4746;35.664;139.738;2023-07-09T00:53:17;31.30;99.90
9414;DHT22;4746;35.664;139.738;2023-07-09T00:55:53;31.40;99.90
9414;DHT22;4746;35.664;139.738;2023-07-09T00:58:27;31.40;99.90
9414;DHT22;4746;35.664;139.738;2023-07-09T01:01:00;31.30;99.90
9414;DHT22;4746;35.664;139.738;2023-07-09T01:03:35;31.30;99.90
9414;DHT22;4746;35.664;139.738;2023-07-09T01:06:09;31.20;99.90
9414;DHT22;4746;35.664;139.738;2023-07-09T01:08:40;31.40;99.90
9414;DHT22;4746;35.664;139.738;2023-07-09T01:11:19;31.30;99.90
9414;DHT22;4746;35.664;139.738;2023-07-09T01:13:52;31.40;99.90
9414;DHT22;4746;35.664;139.738;2023-07-09T01:16:25;31.00;99.90
9414;DHT22;4746;35.664;139.738;2023-07-09T01:18:57;31.10;99.90
9414;DHT22;4746;35.664;139.738;2023-07-09T01:21:26;31.10;99.90
9414;DHT22;4746;35.664;139.738;2023-07-09T01:23:55;31.00;99.90
9414;DHT22;4746;35.664;139.738;2023-07-09T01:26:25;31.00;99.90
9414;DHT22;4746;35.664;139.738;2023-07-09T01:28:55;31.00;99.90
9414;DHT22;4746;35.664;139.738;2023-07-09T01:31:23;30.90;99.90
9414;DHT22;4746;35.664;139.738;2023-07-09T01:33:51;30.80;99.90
9414;DHT22;4746;35.664;139.738;2023-07-09T01:36:21;30.70;99.90
9414;DHT22;4746;35.664;139.738;2023-07-09T01:38:52;30.80;99.90
9414;DHT22;4746;35.664;139.738;2023-07-09T01:41:20;30.80;99.90
9414;DHT22;4746;35.664;139.738;2023-07-09T01:43:48;30.80;99.90
9414;DHT22;4746;35.664;139.738;2023-07-09T01:46:15;30.90;99.90
9414;DHT22;4746;35.664;139.738;2023-07-09T01:48:43;30.90;99.90
9414;DHT22;4746;35.664;139.738;2023-07-09T01:51:14;30.70;99.90
9414;DHT22;4746;35.664;139.738;2023-07-09T01:53:44;30.60;99.90
9414;DHT22;4746;35.664;139.738;2023-07-09T01:56:12;30.60;99.90
9414;DHT22;4746;35.664;139.738;2023-07-09T01:58:39;30.70;99.90
9414;DHT22;4746;35.664;139.738;2023-07-09T02:01:07;30.80;99.90
9414;DHT22;4746;35.664;139.738;2023-07-09T02:03:36;31.00;99.90
9414;DHT22;4746;35.664;139.738;2023-07-09T02:06:03;31.10;99.90
9414;DHT22;4746;35.664;139.738;2023-07-09T02:08:35;31.10;99.90
9414;DHT22;4746;35.664;139.738;2023-07-09T02:11:04;31.00;99.90
9414;DHT22;4746;35.664;139.738;2023-07-09T02:13:31;31.20;99.90
9414;DHT22;4746;35.664;139.738;2023-07-09T02:15:59;31.30;99.90
9414;DHT22;4746;35.664;139.738;2023-07-09T02:18:28;31.20;99.90
9414;DHT22;4746;35.664;139.738;2023-07-09T02:20:56;31.30;99.90
9414;DHT22;4746;35.664;139.738;2023-07-09T02:23:28;31.40;99.90
9414;DHT22;4746;35.664;139.738;2023-07-09T02:25:56;31.40;99.90
9414;DHT22;4746;35.664;139.738;2023-07-09T02:28:24;31.40;99.90
9414;DHT22;4746;35.664;139.738;2023-07-09T02:30:51;31.40;99.90
9414;DHT22;4746;35.664;139.738;2023-07-09T02:33:19;31.40;99.90
9414;DHT22;4746;35.664;139.738;2023-07-09T02:35:47;31.10;99.90
9414;DHT22;4746;35.664;139.738;2023-07-09T02:38:15;31.10;99.90
9414;DHT22;4746;35.664;139.738;2023-07-09T02:40:42;31.10;99.90
9414;DHT22;4746;35.664;139.738;2023-07-09T02:43:10;31.00;99.90
9414;DHT22;4746;35.664;139.738;2023-07-09T02:45:37;31.00;99.90
9414;DHT22;4746;35.664;139.738;2023-07-09T02:48:05;31.10;99.90
9414;DHT22;4746;35.664;139.738;2023-07-09T02:50:33;30.90;99.90
9414;DHT22;4746;35.664;139.738;2023-07-09T02:53:00;31.00;99.90
9414;DHT22;4746;35.664;139.738;2023-07-09T02:55:28;30.80;99.90
9414;DHT22;4746;35.664;139.738;2023-07-09T02:57:56;30.90;99.90
9414;DHT22;4746;35.664;139.738;2023-07-09T03:00:23;30.70;99.90
9414;DHT22;4746;35.664;139.738;2023-07-09T03:02:51;30.70;99.90
9414;DHT22;4746;35.664;139.738;2023-07-09T03:05:18;30.70;99.90
9414;DHT22;4746;35.664;139.738;2023-07-09T03:07:46;30.70;99.90
9414;DHT22;4746;35.664;139.738;2023-07-09T03:10:13;30.70;99.90
9414;DHT22;4746;35.664;139.738;2023-07-09T03:12:41;30.70;99.90
9414;DHT22;4746;35.664;139.738;2023-07-09T03:15:08;30.70;99.90
9414;DHT22;4746;35.664;139.738;2023-07-09T03:17:36;30.60;99.90
9414;DHT22;4746;35.664;139.738;2023-07-09T03:20:04;30.70;99.90
9414;DHT22;4746;35.664;139.738;2023-07-09T03:22:34;30.70;99.90
9414;DHT22;4746;35.664;139.738;2023-07-09T03:25:01;30.70;99.90
9414;DHT22;4746;35.664;139.738;2023-07-09T03:27:29;30.60;99.90
9414;DHT22;4746;35.664;139.738;2023-07-09T03:29:57;30.60;99.90
9414;DHT22;4746;35.664;139.738;2023-07-09T03:32:24;30.50;99.90
9414;DHT22;4746;35.664;139.738;2023-07-09T03:34:52;30.50;99.90
9414;DHT22;4746;35.664;139.738;2023-07-09T03:37:19;30.30;99.90
9414;DHT22;4746;35.664;139.738;2023-07-09T03:39:47;30.30;99.90
9414;DHT22;4746;35.664;139.738;2023-07-09T03:42:14;30.20;99.90
9414;DHT22;4746;35.664;139.738;2023-07-09T03:44:43;30.20;99.90
9414;DHT22;4746;35.664;139.738;2023-07-09T03:47:11;30.00;99.90
9414;DHT22;4746;35.664;139.738;2023-07-09T03:49:38;30.20;99.90
9414;DHT22;4746;35.664;139.738;2023-07-09T03:52:08;30.20;99.90
9414;DHT22;4746;35.664;139.738;2023-07-09T03:54:35;30.10;99.90
9414;DHT22;4746;35.664;139.738;2023-07-09T03:57:03;29.90;99.90
9414;DHT22;4746;35.664;139.738;2023-07-09T03:59:32;30.10;99.90
9414;DHT22;4746;35.664;139.738;2023-07-09T04:02:00;30.00;99.90
9414;DHT22;4746;35.664;139.738;2023-07-09T04:04:29;30.10;99.90
9414;DHT22;4746;35.664;139.738;2023-07-09T04:06:56;30.10;99.90
9414;DHT22;4746;35.664;139.738;2023-07-09T04:09:24;30.20;99.90
9414;DHT22;4746;35.664;139.738;2023-07-09T04:11:51;30.30;99.90
9414;DHT22;4746;35.664;139.738;2023-07-09T04:14:19;30.30;99.90
9414;DHT22;4746;35.664;139.738;2023-07-09T04:16:46;30.20;99.90
9414;DHT22;4746;35.664;139.738;2023-07-09T04:19:14;30.30;99.90
9414;DHT22;4746;35.664;139.738;2023-07-09T04:21:41;30.50;99.90
9414;DHT22;4746;35.664;139.738;2023-07-09T04:24:09;30.60;99.90
9414;DHT22;4746;35.664;139.738;2023-07-09T04:26:36;30.60;99.90
9414;DHT22;4746;35.664;139.738;2023-07-09T04:29:05;30.60;99.90
9414;DHT22;4746;35.664;139.738;2023-07-09T04:31:33;30.70;99.90
9414;DHT22;4746;35.664;139.738;2023-07-09T04:34:00;30.60;99.90
9414;DHT22;4746;35.664;139.738;2023-07-09T04:36:28;30.60;99.90
9414;DHT22;4746;35.664;139.738;2023-07-09T04:38:55;30.60;99.90
9414;DHT22;4746;35.664;139.738;2023-07-09T04:41:23;30.40;99.90
9414;DHT22;4746;35.664;139.738;2023-07-09T04:43:51;30.50;99.90
9414;DHT22;4746;35.664;139.738;2023-07-09T04:46:18;30.70;99.90
9414;DHT22;4746;35.664;139.738;2023-07-09T04:48:46;30.70;99.90
9414;DHT22;4746;35.664;139.738;2023-07-09T04:51:13;30.80;99.90
9414;DHT22;4746;35.664;139.738;2023-07-09T04:53:41;30.90;99.90
9414;DHT22;4746;35.664;139.738;2023-07-09T04:56:09;30.70;99.90
9414;DHT22;4746;35.664;139.738;2023-07-09T04:58:37;30.80;99.90
9414;DHT22;4746;35.664;139.738;2023-07-09T05:01:05;30.90;99.90
9414;DHT22;4746;35.664;139.738;2023-07-09T05:03:32;30.90;99.90
9414;DHT22;4746;35.664;139.738;2023-07-09T05:06:00;30.90;99.90
9414;DHT22;4746;35.664;139.738;2023-07-09T05:08:27;31.10;99.90
9414;DHT22;4746;35.664;139.738;2023-07-09T05:10:57;31.10;99.90
9414;DHT22;4746;35.664;139.738;2023-07-09T05:13:25;31.10;99.90
9414;DHT22;4746;35.664;139.738;2023-07-09T05:15:53;31.20;99.90
9414;DHT22;4746;35.664;139.738;2023-07-09T05:18:21;31.10;99.90
9414;DHT22;4746;35.664;139.738;2023-07-09T05:20:50;31.20;99.90
9414;DHT22;4746;35.664;139.738;2023-07-09T05:23:17;31.40;99.90
9414;DHT22;4746;35.664;139.738;2023-07-09T05:25:45;31.50;99.90
9414;DHT22;4746;35.664;139.738;2023-07-09T05:28:12;31.10;99.90
9414;DHT22;4746;35.664;139.738;2023-07-09T05:30:43;31.30;99.90
9414;DHT22;4746;35.664;139.738;2023-07-09T05:33:10;31.40;99.90
9414;DHT22;4746;35.664;139.738;2023-07-09T05:35:38;31.70;99.90
9414;DHT22;4746;35.664;139.738;2023-07-09T05:38:05;31.90;99.90
9414;DHT22;4746;35.664;139.738;2023-07-09T05:40:33;32.20;99.90
9414;DHT22;4746;35.664;139.738;2023-07-09T05:43:00;32.40;99.90
9414;DHT22;4746;35.664;139.738;2023-07-09T05:45:28;32.50;99.90
9414;DHT22;4746;35.664;139.738;2023-07-09T05:47:55;32.60;99.90
9414;DHT22;4746;35.664;139.738;2023-07-09T05:50:24;32.50;99.90
9414;DHT22;4746;35.664;139.738;2023-07-09T05:52:52;32.60;99.90
9414;DHT22;4746;35.664;139.738;2023-07-09T05:55:20;32.60;99.90
9414;DHT22;4746;35.664;139.738;2023-07-09T05:57:47;32.50;99.90
9414;DHT22;4746;35.664;139.738;2023-07-09T06:00:15;32.30;99.90
9414;DHT22;4746;35.664;139.738;2023-07-09T06:02:43;32.20;99.90
9414;DHT22;4746;35.664;139.738;2023-07-09T06:05:10;32.20;99.90
9414;DHT22;4746;35.664;139.738;2023-07-09T06:07:38;32.10;99.90
9414;DHT22;4746;35.664;139.738;2023-07-09T06:10:07;32.10;99.90
9414;DHT22;4746;35.664;139.738;2023-07-09T06:12:36;31.80;99.90
9414;DHT22;4746;35.664;139.738;2023-07-09T06:15:04;31.60;99.90
9414;DHT22;4746;35.664;139.738;2023-07-09T06:17:32;31.30;99.90
9414;DHT22;4746;35.664;139.738;2023-07-09T06:20:00;31.10;99.90
9414;DHT22;4746;35.664;139.738;2023-07-09T06:22:27;30.80;99.90
9414;DHT22;4746;35.664;139.738;2023-07-09T06:24:55;30.60;99.90
9414;DHT22;4746;35.664;139.738;2023-07-09T06:27:22;30.50;99.90
9414;DHT22;4746;35.664;139.738;2023-07-09T06:29:50;30.40;99.90
9414;DHT22;4746;35.664;139.738;2023-07-09T06:32:17;30.50;99.90
9414;DHT22;4746;35.664;139.738;2023-07-09T06:34:45;30.40;99.90
9414;DHT22;4746;35.664;139.738;2023-07-09T06:37:12;30.20;99.90
9414;DHT22;4746;35.664;139.738;2023-07-09T06:39:40;30.10;99.90
9414;DHT22;4746;35.664;139.738;2023-07-09T06:42:08;30.10;99.90
9414;DHT22;4746;35.664;139.738;2023-07-09T06:44:35;29.90;99.90
9414;DHT22;4746;35.664;139.738;2023-07-09T06:47:03;30.00;99.90
9414;DHT22;4746;35.664;139.738;2023-07-09T06:49:30;30.10;99.90
9414;DHT22;4746;35.664;139.738;2023-07-09T06:51:58;30.00;99.90
9414;DHT22;4746;35.664;139.738;2023-07-09T06:54:25;29.90;99.90
9414;DHT22;4746;35.664;139.738;2023-07-09T06:56:53;30.10;99.90
9414;DHT22;4746;35.664;139.738;2023-07-09T06:59:20;30.10;99.90
9414;DHT22;4746;35.664;139.738;2023-07-09T07:01:48;30.10;99.90
9414;DHT22;4746;35.664;139.738;2023-07-09T07:04:15;29.90;99.90
9414;DHT22;4746;35.664;139.738;2023-07-09T07:06:44;29.80;99.90
9414;DHT22;4746;35.664;139.738;2023-07-09T07:09:13;29.80;99.90
9414;DHT22;4746;35.664;139.738;2023-07-09T07:11:40;29.80;99.90
9414;DHT22;4746;35.664;139.738;2023-07-09T07:14:07;29.80;99.90
9414;DHT22;4746;35.664;139.738;2023-07-09T07:16:35;29.80;99.90
9414;DHT22;4746;35.664;139.738;2023-07-09T07:19:02;29.80;99.90
9414;DHT22;4746;35.664;139.738;2023-07-09T07:21:30;29.80;99.90
9414;DHT22;4746;35.664;139.738;2023-07-09T07:23:57;29.70;99.90
9414;DHT22;4746;35.664;139.738;2023-07-09T07:26:25;29.70;99.90
9414;DHT22;4746;35.664;139.738;2023-07-09T07:28:52;29.60;99.90
9414;DHT22;4746;35.664;139.738;2023-07-09T07:31:20;29.70;99.90
9414;DHT22;4746;35.664;139.738;2023-07-09T07:33:47;29.70;99.90
9414;DHT22;4746;35.664;139.738;2023-07-09T07:36:15;29.70;99.90
9414;DHT22;4746;35.664;139.738;2023-07-09T07:38:42;29.70;99.90
9414;DHT22;4746;35.664;139.738;2023-07-09T07:41:10;29.80;99.90
9414;DHT22;4746;35.664;139.738;2023-07-09T07:43:38;29.70;99.90
9414;DHT22;4746;35.664;139.738;2023-07-09T07:46:06;29.70;99.90
9414;DHT22;4746;35.664;139.738;2023-07-09T07:48:34;29.90;99.90
9414;DHT22;4746;35.664;139.738;2023-07-09T07:51:02;29.90;99.90
9414;DHT22;4746;35.664;139.738;2023-07-09T07:53:31;30.00;99.90
9414;DHT22;4746;35.664;139.738;2023-07-09T07:55:58;30.10;99.90
9414;DHT22;4746;35.664;139.738;2023-07-09T07:58:29;30.20;99.90
9414;DHT22;4746;35.664;139.738;2023-07-09T08:00:58;30.40;99.90
9414;DHT22;4746;35.664;139.738;2023-07-09T08:03:26;30.50;99.90
9414;DHT22;4746;35.664;139.738;2023-07-09T08:05:54;30.60;99.90
9414;DHT22;4746;35.664;139.738;2023-07-09T08:08:22;30.60;99.90
9414;DHT22;4746;35.664;139.738;2023-07-09T08:11:08;30.70;99.90
9414;DHT22;4746;35.664;139.738;2023-07-09T08:13:37;30.60;99.90
9414;DHT22;4746;35.664;139.738;2023-07-09T08:16:06;30.60;99.90
9414;DHT22;4746;35.664;139.738;2023-07-09T08:18:34;30.50;99.90
9414;DHT22;4746;35.664;139.738;2023-07-09T08:21:02;30.40;99.90
9414;DHT22;4746;35.664;139.738;2023-07-09T08:23:30;30.30;99.90
9414;DHT22;4746;35.664;139.738;2023-07-09T08:25:59;30.30;99.90
9414;DHT22;4746;35.664;139.738;2023-07-09T08:28:29;30.10;99.90
9414;DHT22;4746;35.664;139.738;2023-07-09T08:30:57;30.00;99.90
9414;DHT22;4746;35.664;139.738;2023-07-09T08:33:25;29.90;99.90
9414;DHT22;4746;35.664;139.738;2023-07-09T08:35:54;29.90;99.90
9414;DHT22;4746;35.664;139.738;2023-07-09T08:38:22;29.80;99.90
9414;DHT22;4746;35.664;139.738;2023-07-09T08:49:58;29.80;99.90
9414;DHT22;4746;35.664;139.738;2023-07-09T08:52:41;29.70;99.90
9414;DHT22;4746;35.664;139.738;2023-07-09T08:55:23;29.70;99.90
9414;DHT22;4746;35.664;139.738;2023-07-09T08:58:03;29.70;99.90
9414;DHT22;4746;35.664;139.738;2023-07-09T09:06:17;29.70;99.90
9414;DHT22;4746;35.664;139.738;2023-07-09T09:11:59;29.70;99.90
9414;DHT22;4746;35.664;139.738;2023-07-09T09:14:34;29.70;99.90
9414;DHT22;4746;35.664;139.738;2023-07-09T09:17:19;29.70;99.90
9414;DHT22;4746;35.664;139.738;2023-07-09T09:19:54;29.70;99.90
9414;DHT22;4746;35.664;139.738;2023-07-09T09:22:27;29.70;99.90
9414;DHT22;4746;35.664;139.738;2023-07-09T09:27:50;29.60;99.90
9414;DHT22;4746;35.664;139.738;2023-07-09T09:30:21;29.60;99.90
9414;DHT22;4746;35.664;139.738;2023-07-09T09:33:00;29.60;99.90
9414;DHT22;4746;35.664;139.738;2023-07-09T09:35:34;29.50;99.90
9414;DHT22;4746;35.664;139.738;2023-07-09T09:38:13;29.40;99.90
9414;DHT22;4746;35.664;139.738;2023-07-09T09:40:46;29.40;99.90
9414;DHT22;4746;35.664;139.738;2023-07-09T09:43:19;29.20;99.90
9414;DHT22;4746;35.664;139.738;2023-07-09T09:45:52;29.20;99.90
9414;DHT22;4746;35.664;139.738;2023-07-09T09:48:40;29.20;99.90
9414;DHT22;4746;35.664;139.738;2023-07-09T09:51:11;29.20;99.90
9414;DHT22;4746;35.664;139.738;2023-07-09T09:53:44;29.20;99.90
9414;DHT22;4746;35.664;139.738;2023-07-09T09:56:34;29.20;99.90
9414;DHT22;4746;35.664;139.738;2023-07-09T09:59:04;29.20;99.90
9414;DHT22;4746;35.664;139.738;2023-07-09T10:01:34;29.20;99.90
9414;DHT22;4746;35.664;139.738;2023-07-09T10:04:05;29.10;99.90
9414;DHT22;4746;35.664;139.738;2023-07-09T10:06:41;29.10;99.90
9414;DHT22;4746;35.664;139.738;2023-07-09T10:12:32;29.10;99.90
9414;DHT22;4746;35.664;139.738;2023-07-09T10:15:41;29.10;99.90
9414;DHT22;4746;35.664;139.738;2023-07-09T10:18:54;29.10;99.90
9414;DHT22;4746;35.664;139.738;2023-07-09T10:22:00;29.10;99.90
9414;DHT22;4746;35.664;139.738;2023-07-09T10:27:32;29.00;99.90
9414;DHT22;4746;35.664;139.738;2023-07-09T10:35:49;29.00;99.90
9414;DHT22;4746;35.664;139.738;2023-07-09T10:38:47;28.90;99.90
9414;DHT22;4746;35.664;139.738;2023-07-09T10:41:44;28.90;99.90
9414;DHT22;4746;35.664;139.738;2023-07-09T10:44:20;28.80;99.90
9414;DHT22;4746;35.664;139.738;2023-07-09T10:47:04;28.80;99.90
9414;DHT22;4746;35.664;139.738;2023-07-09T10:49:42;28.90;99.90
9414;DHT22;4746;35.664;139.738;2023-07-09T10:52:27;28.80;99.90
9414;DHT22;4746;35.664;139.738;2023-07-09T10:55:23;28.80;99.90
9414;DHT22;4746;35.664;139.738;2023-07-09T10:58:03;28.70;99.90
9414;DHT22;4746;35.664;139.738;2023-07-09T11:00:39;28.70;99.90
9414;DHT22;4746;35.664;139.738;2023-07-09T11:03:22;28.80;99.90
9414;DHT22;4746;35.664;139.738;2023-07-09T11:06:00;28.70;99.90
9414;DHT22;4746;35.664;139.738;2023-07-09T11:08:38;28.70;99.90
9414;DHT22;4746;35.664;139.738;2023-07-09T11:11:32;28.80;99.90
9414;DHT22;4746;35.664;139.738;2023-07-09T11:14:35;28.70;99.90
9414;DHT22;4746;35.664;139.738;2023-07-09T11:17:20;28.70;99.90
9414;DHT22;4746;35.664;139.738;2023-07-09T11:19:55;28.70;99.90
9414;DHT22;4746;35.664;139.738;2023-07-09T11:22:36;28.70;99.90
9414;DHT22;4746;35.664;139.738;2023-07-09T11:25:27;28.70;99.90
9414;DHT22;4746;35.664;139.738;2023-07-09T11:28:08;28.70;99.90
9414;DHT22;4746;35.664;139.738;2023-07-09T11:30:57;28.70;99.90
9414;DHT22;4746;35.664;139.738;2023-07-09T11:33:33;28.70;99.90
9414;DHT22;4746;35.664;139.738;2023-07-09T11:36:13;28.80;99.90
9414;DHT22;4746;35.664;139.738;2023-07-09T11:38:50;28.80;99.90
9414;DHT22;4746;35.664;139.738;2023-07-09T11:44:16;28.80;99.90
9414;DHT22;4746;35.664;139.738;2023-07-09T11:53:03;28.80;99.90
9414;DHT22;4746;35.664;139.738;2023-07-09T11:55:39;28.80;99.90
9414;DHT22;4746;35.664;139.738;2023-07-09T11:58:12;28.70;99.90
9414;DHT22;4746;35.664;139.738;2023-07-09T12:00:49;28.80;99.90
9414;DHT22;4746;35.664;139.738;2023-07-09T12:03:28;28.80;99.90
9414;DHT22;4746;35.664;139.738;2023-07-09T12:06:21;28.70;99.90
9414;DHT22;4746;35.664;139.738;2023-07-09T12:09:00;28.80;99.90
9414;DHT22;4746;35.664;139.738;2023-07-09T12:11:34;28.80;99.90
9414;DHT22;4746;35.664;139.738;2023-07-09T12:14:13;28.70;99.90
9414;DHT22;4746;35.664;139.738;2023-07-09T12:16:52;28.70;99.90
9414;DHT22;4746;35.664;139.738;2023-07-09T12:19:23;28.70;99.90
9414;DHT22;4746;35.664;139.738;2023-07-09T12:21:58;28.60;99.90
9414;DHT22;4746;35.664;139.738;2023-07-09T12:24:29;28.60;99.90
9414;DHT22;4746;35.664;139.738;2023-07-09T12:27:14;28.50;99.90
9414;DHT22;4746;35.664;139.738;2023-07-09T12:29:56;28.50;99.90
9414;DHT22;4746;35.664;139.738;2023-07-09T12:32:24;28.50;99.90
9414;DHT22;4746;35.664;139.738;2023-07-09T12:34:55;28.50;99.90
9414;DHT22;4746;35.664;139.738;2023-07-09T12:37:24;28.60;99.90
9414;DHT22;4746;35.664;139.738;2023-07-09T12:39:59;28.60;99.90
9414;DHT22;4746;35.664;139.738;2023-07-09T12:42:36;28.60;99.90
9414;DHT22;4746;35.664;139.738;2023-07-09T12:45:05;28.70;99.90
9414;DHT22;4746;35.664;139.738;2023-07-09T12:47:40;28.70;99.90
9414;DHT22;4746;35.664;139.738;2023-07-09T12:50:32;28.70;99.90
9414;DHT22;4746;35.664;139.738;2023-07-09T12:53:15;28.80;99.90
9414;DHT22;4746;35.664;139.738;2023-07-09T12:55:48;28.80;99.90
9414;DHT22;4746;35.664;139.738;2023-07-09T12:58:26;28.80;99.90
9414;DHT22;4746;35.664;139.738;2023-07-09T13:00:57;28.80;99.90
9414;DHT22;4746;35.664;139.738;2023-07-09T13:03:32;28.80;99.90
9414;DHT22;4746;35.664;139.738;2023-07-09T13:06:06;28.80;99.90
9414;DHT22;4746;35.664;139.738;2023-07-09T13:08:56;28.80;99.90
9414;DHT22;4746;35.664;139.738;2023-07-09T13:11:35;28.70;99.90
9414;DHT22;4746;35.664;139.738;2023-07-09T13:14:11;28.70;99.90
9414;DHT22;4746;35.664;139.738;2023-07-09T13:16:47;28.70;99.90
9414;DHT22;4746;35.664;139.738;2023-07-09T13:19:17;28.70;99.90
9414;DHT22;4746;35.664;139.738;2023-07-09T13:21:46;28.70;99.90
9414;DHT22;4746;35.664;139.738;2023-07-09T13:24:23;28.70;99.90
9414;DHT22;4746;35.664;139.738;2023-07-09T13:26:52;28.70;99.90
9414;DHT22;4746;35.664;139.738;2023-07-09T13:29:20;28.80;99.90
9414;DHT22;4746;35.664;139.738;2023-07-09T13:31:48;28.80;99.90
9414;DHT22;4746;35.664;139.738;2023-07-09T13:34:27;28.90;99.90
9414;DHT22;4746;35.664;139.738;2023-07-09T13:37:01;28.90;99.90
9414;DHT22;4746;35.664;139.738;2023-07-09T13:39:29;29.00;99.90
9414;DHT22;4746;35.664;139.738;2023-07-09T13:41:57;29.00;99.90
9414;DHT22;4746;35.664;139.738;2023-07-09T13:44:27;29.00;99.90
9414;DHT22;4746;35.664;139.738;2023-07-09T13:46:57;29.00;99.90
9414;DHT22;4746;35.664;139.738;2023-07-09T13:49:26;29.00;99.90
9414;DHT22;4746;35.664;139.738;2023-07-09T13:51:56;28.80;99.90
9414;DHT22;4746;35.664;139.738;2023-07-09T13:54:31;28.80;99.90
9414;DHT22;4746;35.664;139.738;2023-07-09T13:57:06;28.70;99.90
9414;DHT22;4746;35.664;139.738;2023-07-09T13:59:39;28.70;99.90
9414;DHT22;4746;35.664;139.738;2023-07-09T14:02:30;28.60;99.90
9414;DHT22;4746;35.664;139.738;2023-07-09T14:05:03;28.50;99.90
9414;DHT22;4746;35.664;139.738;2023-07-09T14:07:35;28.50;99.90
9414;DHT22;4746;35.664;139.738;2023-07-09T14:10:10;28.40;99.90
9414;DHT22;4746;35.664;139.738;2023-07-09T14:12:43;28.40;99.90
9414;DHT22;4746;35.664;139.738;2023-07-09T14:15:20;28.30;99.90
9414;DHT22;4746;35.664;139.738;2023-07-09T14:17:48;28.40;99.90
9414;DHT22;4746;35.664;139.738;2023-07-09T14:20:17;28.30;99.90
9414;DHT22;4746;35.664;139.738;2023-07-09T14:22:48;28.30;99.90
9414;DHT22;4746;35.664;139.738;2023-07-09T14:25:21;28.30;99.90
9414;DHT22;4746;35.664;139.738;2023-07-09T14:27:52;28.30;99.90
9414;DHT22;4746;35.664;139.738;2023-07-09T14:30:24;28.30;99.90
9414;DHT22;4746;35.664;139.738;2023-07-09T14:32:52;28.30;99.90
9414;DHT22;4746;35.664;139.738;2023-07-09T14:35:22;28.30;99.90
9414;DHT22;4746;35.664;139.738;2023-07-09T14:37:52;28.30;99.90
9414;DHT22;4746;35.664;139.738;2023-07-09T14:40:21;28.30;99.90
9414;DHT22;4746;35.664;139.738;2023-07-09T14:42:50;28.30;99.90
9414;DHT22;4746;35.664;139.738;2023-07-09T14:45:25;28.30;99.90
9414;DHT22;4746;35.664;139.738;2023-07-09T14:47:58;28.20;99.90
9414;DHT22;4746;35.664;139.738;2023-07-09T14:50:25;28.20;99.90
9414;DHT22;4746;35.664;139.738;2023-07-09T14:52:53;28.10;99.90
9414;DHT22;4746;35.664;139.738;2023-07-09T14:55:22;28.20;99.90
9414;DHT22;4746;35.664;139.738;2023-07-09T14:57:54;28.20;99.90
9414;DHT22;4746;35.664;139.738;2023-07-09T15:00:26;28.20;99.90
9414;DHT22;4746;35.664;139.738;2023-07-09T15:02:54;28.20;99.90
9414;DHT22;4746;35.664;139.738;2023-07-09T15:05:24;28.10;99.90
9414;DHT22;4746;35.664;139.738;2023-07-09T15:07:54;28.10;99.90
9414;DHT22;4746;35.664;139.738;2023-07-09T15:10:24;28.10;99.90
9414;DHT22;4746;35.664;139.738;2023-07-09T15:12:56;28.10;99.90
9414;DHT22;4746;35.664;139.738;2023-07-09T15:15:27;28.10;99.90
9414;DHT22;4746;35.664;139.738;2023-07-09T15:17:58;28.10;99.90
9414;DHT22;4746;35.664;139.738;2023-07-09T15:20:30;28.10;99.90
9414;DHT22;4746;35.664;139.738;2023-07-09T15:22:59;28.10;99.90
9414;DHT22;4746;35.664;139.738;2023-07-09T15:25:29;28.00;99.90
9414;DHT22;4746;35.664;139.738;2023-07-09T15:27:57;28.10;99.90
9414;DHT22;4746;35.664;139.738;2023-07-09T15:30:26;28.10;99.90
9414;DHT22;4746;35.664;139.738;2023-07-09T15:32:57;28.10;99.90
9414;DHT22;4746;35.664;139.738;2023-07-09T15:35:35;28.10;99.90
9414;DHT22;4746;35.664;139.738;2023-07-09T15:40:49;28.10;99.90
9414;DHT22;4746;35.664;139.738;2023-07-09T15:43:16;28.10;99.90
9414;DHT22;4746;35.664;139.738;2023-07-09T15:45:47;28.10;99.90
9414;DHT22;4746;35.664;139.738;2023-07-09T15:48:27;28.20;99.90
9414;DHT22;4746;35.664;139.738;2023-07-09T15:51:04;28.20;99.90
9414;DHT22;4746;35.664;139.738;2023-07-09T15:53:32;28.20;99.90
9414;DHT22;4746;35.664;139.738;2023-07-09T15:56:43;28.10;99.90
9414;DHT22;4746;35.664;139.738;2023-07-09T15:58:57;28.10;99.90
9414;DHT22;4746;35.664;139.738;2023-07-09T16:01:26;28.10;99.90
9414;DHT22;4746;35.664;139.738;2023-07-09T16:04:02;28.10;99.90
9414;DHT22;4746;35.664;139.738;2023-07-09T16:06:34;28.00;99.90
9414;DHT22;4746;35.664;139.738;2023-07-09T16:09:04;28.00;99.90
9414;DHT22;4746;35.664;139.738;2023-07-09T16:11:31;28.10;99.90
9414;DHT22;4746;35.664;139.738;2023-07-09T16:14:00;28.10;99.90
9414;DHT22;4746;35.664;139.738;2023-07-09T16:16:27;28.10;99.90
9414;DHT22;4746;35.664;139.738;2023-07-09T16:18:55;28.10;99.90
9414;DHT22;4746;35.664;139.738;2023-07-09T16:21:30;28.10;99.90
9414;DHT22;4746;35.664;139.738;2023-07-09T16:23:59;28.00;99.90
9414;DHT22;4746;35.664;139.738;2023-07-09T16:26:32;28.00;99.90
9414;DHT22;4746;35.664;139.738;2023-07-09T16:29:01;28.00;99.90
9414;DHT22;4746;35.664;139.738;2023-07-09T16:31:31;27.90;99.90
9414;DHT22;4746;35.664;139.738;2023-07-09T16:33:58;27.90;99.90
9414;DHT22;4746;35.664;139.738;2023-07-09T16:36:26;27.80;99.90
9414;DHT22;4746;35.664;139.738;2023-07-09T16:38:53;27.80;99.90
9414;DHT22;4746;35.664;139.738;2023-07-09T16:41:21;27.80;99.90
9414;DHT22;4746;35.664;139.738;2023-07-09T16:43:48;27.80;99.90